createdAt,value
2022-11-29T00:00:32.195Z,101341.03
2022-11-29T00:02:58.707Z,101353.34
2022-11-29T00:05:25.191Z,101351.78
2022-11-29T00:07:51.626Z,101350.63
2022-11-29T00:10:18.147Z,101348.69
2022-11-29T00:12:46.423Z,101356.91
2022-11-29T00:15:12.790Z,101349.78
2022-11-29T00:17:39.198Z,101355.31
2022-11-29T00:20:05.658Z,101354.50
2022-11-29T00:22:32.900Z,101353.34
2022-11-29T00:24:59.297Z,101357.34
2022-11-29T00:27:27.534Z,101358.91
2022-11-29T00:29:53.941Z,101348.59
2022-11-29T00:32:20.349Z,101351.00
2022-11-29T00:34:47.561Z,101360.13
2022-11-29T00:37:13.902Z,101356.91
2022-11-29T00:39:40.455Z,101355.31
2022-11-29T00:42:06.872Z,101342.25
2022-11-29T00:47:17.287Z,101349.75
2022-11-29T00:49:43.719Z,101354.13
2022-11-29T00:52:11.003Z,101346.19
2022-11-29T00:54:40.151Z,101348.53
2022-11-29T00:57:06.536Z,101341.78
2022-11-29T01:02:26.662Z,101331.13
2022-11-29T01:04:53.118Z,101338.28
2022-11-29T01:07:19.525Z,101333.91
2022-11-29T01:09:45.970Z,101330.72
2022-11-29T01:12:12.403Z,101333.50
2022-11-29T01:17:22.813Z,101329.09
2022-11-29T01:19:50.973Z,101326.31
2022-11-29T01:22:17.596Z,101325.94
2022-11-29T01:24:44.269Z,101323.59
2022-11-29T01:27:10.873Z,101319.22
2022-11-29T01:32:23.765Z,101314.47
2022-11-29T01:34:50.134Z,101309.66
2022-11-29T01:37:16.579Z,101315.22
2022-11-29T01:39:42.898Z,101315.59
2022-11-29T01:42:09.289Z,101312.84
2022-11-29T01:47:32.563Z,101304.91
2022-11-29T01:50:00.777Z,101305.69
2022-11-29T01:52:29.017Z,101301.69
2022-11-29T01:54:58.108Z,101305.31
2022-11-29T01:57:25.295Z,101299.41
2022-11-29T02:02:45.823Z,101309.66
2022-11-29T02:05:12.415Z,101308.09
2022-11-29T02:07:40.726Z,101302.53
2022-11-29T02:10:09.006Z,101303.38
2022-11-29T02:12:36.325Z,101309.28
2022-11-29T02:17:50.075Z,101299.78
2022-11-29T02:20:17.324Z,101301.00
2022-11-29T02:22:43.673Z,101300.59
2022-11-29T02:25:10.062Z,101309.34
2022-11-29T02:27:36.458Z,101309.72
2022-11-29T02:32:47.671Z,101310.47
2022-11-29T02:35:14.035Z,101304.53
2022-11-29T02:37:40.356Z,101306.53
2022-11-29T02:40:07.572Z,101306.16
2022-11-29T02:42:34.064Z,101315.25
2022-11-29T02:47:44.524Z,101313.66
2022-11-29T02:50:11.754Z,101307.69
2022-11-29T02:52:38.071Z,101306.88
2022-11-29T02:55:04.425Z,101312.44
2022-11-29T02:57:30.821Z,101316.78
2022-11-29T03:02:52.692Z,101322.31
2022-11-29T03:05:19.928Z,101319.09
2022-11-29T03:07:46.271Z,101314.44
2022-11-29T03:10:13.573Z,101315.16
2022-11-29T03:12:40.799Z,101318.38
2022-11-29T03:17:51.272Z,101324.28
2022-11-29T03:20:17.627Z,101323.13
2022-11-29T03:22:43.989Z,101325.06
2022-11-29T03:25:10.376Z,101323.91
2022-11-29T03:27:36.740Z,101334.19
2022-11-29T03:32:47.198Z,101325.06
2022-11-29T03:35:14.437Z,101323.13
2022-11-29T03:37:40.843Z,101323.50
2022-11-29T03:40:07.240Z,101326.69
2022-11-29T03:42:34.468Z,101322.75
2022-11-29T03:45:00.849Z,101324.34
2022-11-29T03:47:27.167Z,101327.47
2022-11-29T03:49:54.396Z,101331.88
2022-11-29T03:52:20.717Z,101336.94
2022-11-29T03:54:48.020Z,101323.06
2022-11-29T03:57:14.436Z,101334.22
2022-11-29T03:59:41.616Z,101346.53
2022-11-29T04:02:07.993Z,101337.78
2022-11-29T04:04:34.330Z,101344.97
2022-11-29T04:07:00.704Z,101346.50
2022-11-29T04:09:27.957Z,101345.69
2022-11-29T04:11:54.291Z,101341.69
2022-11-29T04:14:20.632Z,101342.94
2022-11-29T04:16:49.843Z,101348.13
2022-11-29T04:19:17.052Z,101346.13
2022-11-29T04:21:43.361Z,101352.78
2022-11-29T04:24:10.583Z,101354.78
2022-11-29T04:26:36.918Z,101359.97
2022-11-29T04:29:03.257Z,101367.03
2022-11-29T04:31:29.614Z,101359.53
2022-11-29T04:33:56.041Z,101360.31
2022-11-29T04:36:22.364Z,101361.13
2022-11-29T04:38:48.664Z,101359.59
2022-11-29T04:41:15.020Z,101356.81
2022-11-29T04:43:41.329Z,101358.38
2022-11-29T04:46:07.678Z,101371.53
2022-11-29T04:48:34.021Z,101364.41
2022-11-29T04:51:00.416Z,101367.91
2022-11-29T04:53:26.739Z,101365.94
2022-11-29T04:55:53.086Z,101365.50
2022-11-29T04:58:19.425Z,101368.22
2022-11-29T05:00:45.772Z,101373.84
2022-11-29T05:06:05.999Z,101381.38
2022-11-29T05:08:32.336Z,101376.56
2022-11-29T05:10:58.667Z,101379.75
2022-11-29T05:13:27.775Z,101381.78
2022-11-29T05:15:54.198Z,101382.59
2022-11-29T05:21:06.426Z,101390.06
2022-11-29T05:23:32.759Z,101388.94
2022-11-29T05:25:59.096Z,101388.19
2022-11-29T05:28:25.424Z,101394.53
2022-11-29T05:30:51.818Z,101392.53
2022-11-29T05:36:02.066Z,101391.72
2022-11-29T05:38:28.422Z,101401.22
2022-11-29T05:40:54.834Z,101400.81
2022-11-29T05:43:21.227Z,101404.75
2022-11-29T05:45:47.553Z,101407.50
2022-11-29T05:51:09.079Z,101429.53
2022-11-29T05:53:35.502Z,101428.63
2022-11-29T05:56:02.793Z,101436.06
2022-11-29T05:58:30.843Z,101439.00
2022-11-29T06:00:57.371Z,101421.22
2022-11-29T06:06:10.736Z,101428.63
2022-11-29T06:08:38.994Z,101427.44
2022-11-29T06:11:08.148Z,101428.56
2022-11-29T06:13:34.519Z,101429.16
2022-11-29T06:16:00.920Z,101433.66
2022-11-29T06:21:11.155Z,101438.13
2022-11-29T06:23:37.477Z,101439.81
2022-11-29T06:26:04.464Z,101441.03
2022-11-29T06:28:30.848Z,101445.50
2022-11-29T06:30:57.271Z,101448.41
2022-11-29T06:36:17.473Z,101443.28
2022-11-29T06:38:43.827Z,101444.50
2022-11-29T06:41:10.155Z,101447.69
2022-11-29T06:43:36.520Z,101450.53
2022-11-29T06:46:02.861Z,101454.13
2022-11-29T06:51:13.243Z,101451.00
2022-11-29T06:53:39.584Z,101458.16
2022-11-29T06:56:05.952Z,101457.00
2022-11-29T06:58:36.023Z,101452.25
2022-11-29T07:01:02.853Z,101457.06
2022-11-29T07:06:14.133Z,101460.25
2022-11-29T07:08:40.451Z,101459.84
2022-11-29T07:11:06.862Z,101469.75
2022-11-29T07:13:33.206Z,101468.59
2022-11-29T07:15:59.883Z,101467.81
2022-11-29T07:21:21.416Z,101465.81
2022-11-29T07:23:48.061Z,101477.38
2022-11-29T07:26:15.557Z,101473.44
2022-11-29T07:28:42.236Z,101475.84
2022-11-29T07:31:09.754Z,101475.06
2022-11-29T07:36:30.158Z,101480.25
2022-11-29T07:38:56.559Z,101479.47
2022-11-29T07:41:22.886Z,101480.25
2022-11-29T07:43:49.208Z,101478.34
2022-11-29T07:46:15.557Z,101481.50
2022-11-29T07:48:41.982Z,101487.06
2022-11-29T07:51:08.361Z,101484.34
2022-11-29T07:53:34.678Z,101498.22
2022-11-29T07:56:01.002Z,101497.84
2022-11-29T07:58:27.369Z,101502.44
2022-11-29T08:00:55.723Z,101495.16
2022-11-29T08:03:23.144Z,101484.47
2022-11-29T08:05:49.612Z,101486.97
2022-11-29T08:08:16.082Z,101487.06
2022-11-29T08:10:42.579Z,101488.69
2022-11-29T08:13:09.097Z,101494.31
2022-11-29T08:15:36.493Z,101504.69
2022-11-29T08:18:02.953Z,101508.13
2022-11-29T08:20:30.335Z,101517.66
2022-11-29T08:22:56.797Z,101502.22
2022-11-29T08:25:23.248Z,101497.47
2022-11-29T08:27:49.771Z,101499.56
2022-11-29T08:30:16.203Z,101487.16
2022-11-29T08:32:45.914Z,101496.91
2022-11-29T08:35:16.435Z,101490.13
2022-11-29T08:37:42.901Z,101496.25
2022-11-29T08:40:09.383Z,101497.59
2022-11-29T08:42:35.838Z,101499.66
2022-11-29T08:45:02.298Z,101498.09
2022-11-29T08:47:28.755Z,101505.13
2022-11-29T08:49:56.137Z,101503.75
2022-11-29T08:52:22.597Z,101497.16
2022-11-29T08:54:49.981Z,101496.28
2022-11-29T08:57:39.060Z,101504.25
2022-11-29T09:00:04.848Z,101498.97
2022-11-29T09:02:32.294Z,101493.69
2022-11-29T09:04:58.801Z,101498.44
2022-11-29T09:07:26.221Z,101500.13
2022-11-29T09:09:52.667Z,101499.69
2022-11-29T09:12:19.126Z,101496.91
2022-11-29T09:14:46.620Z,101486.00
2022-11-29T09:17:13.246Z,101487.25
2022-11-29T09:19:40.633Z,101495.09
2022-11-29T09:25:01.345Z,101488.22
2022-11-29T09:27:28.841Z,101489.69
2022-11-29T09:29:55.343Z,101489.56
2022-11-29T09:32:21.819Z,101485.75
2022-11-29T09:34:48.478Z,101493.59
2022-11-29T09:40:00.162Z,101488.13
2022-11-29T09:42:27.878Z,101493.63
2022-11-29T09:44:54.326Z,101480.06
2022-11-29T09:47:21.779Z,101479.03
2022-11-29T09:49:49.172Z,101484.72
2022-11-29T09:55:00.513Z,101490.63
2022-11-29T09:57:27.901Z,101485.88
2022-11-29T09:59:55.279Z,101487.56
2022-11-29T10:02:22.716Z,101489.69
2022-11-29T10:04:49.259Z,101493.47
2022-11-29T10:09:59.814Z,101480.63
2022-11-29T10:12:27.226Z,101478.81
2022-11-29T10:14:57.422Z,101485.50
2022-11-29T10:17:24.808Z,101475.00
2022-11-29T10:19:52.219Z,101475.97
2022-11-29T10:25:13.702Z,101466.81
2022-11-29T10:27:40.169Z,101471.66
2022-11-29T10:30:07.583Z,101472.25
2022-11-29T10:32:34.047Z,101471.78
2022-11-29T10:35:01.448Z,101477.34
2022-11-29T10:40:22.619Z,101475.16
2022-11-29T10:42:49.098Z,101471.59
2022-11-29T10:45:16.475Z,101476.91
2022-11-29T10:47:42.942Z,101464.19
2022-11-29T10:50:09.439Z,101476.28
2022-11-29T10:55:29.820Z,101476.63
2022-11-29T10:57:57.220Z,101481.28
2022-11-29T11:00:23.671Z,101486.81
2022-11-29T11:02:50.145Z,101483.00
2022-11-29T11:05:16.672Z,101481.66
2022-11-29T11:10:40.096Z,101486.03
2022-11-29T11:13:06.732Z,101472.38
2022-11-29T11:15:33.174Z,101469.81
2022-11-29T11:17:59.752Z,101475.44
2022-11-29T11:20:28.013Z,101486.91
2022-11-29T11:25:40.492Z,101485.75
2022-11-29T11:28:06.988Z,101478.63
2022-11-29T11:30:34.415Z,101471.63
2022-11-29T11:33:00.912Z,101478.75
2022-11-29T11:35:28.323Z,101479.88
2022-11-29T11:40:39.602Z,101484.56
2022-11-29T11:43:06.071Z,101489.25
2022-11-29T11:45:32.558Z,101489.59
2022-11-29T11:47:59.949Z,101491.81
2022-11-29T11:50:27.347Z,101493.97
2022-11-29T11:55:38.852Z,101494.75
2022-11-29T11:58:09.939Z,101494.03
2022-11-29T12:01:02.259Z,101497.88
2022-11-29T12:03:23.795Z,101497.72
2022-11-29T12:05:51.394Z,101493.41
2022-11-29T12:11:07.176Z,101497.72
2022-11-29T12:13:34.112Z,101499.59
2022-11-29T12:16:00.643Z,101505.94
2022-11-29T12:18:27.137Z,101498.78
2022-11-29T12:20:53.599Z,101498.69
2022-11-29T12:26:28.607Z,101509.78
2022-11-29T12:29:03.462Z,101512.63
2022-11-29T12:31:30.003Z,101514.81
2022-11-29T12:33:57.550Z,101509.66
2022-11-29T12:36:24.951Z,101507.47
2022-11-29T12:41:35.677Z,101508.34
2022-11-29T12:44:02.156Z,101517.50
2022-11-29T12:46:28.682Z,101513.75
2022-11-29T12:48:56.145Z,101513.81
2022-11-29T12:51:22.654Z,101518.06
2022-11-29T12:56:34.230Z,101520.31
2022-11-29T12:59:01.636Z,101516.84
2022-11-29T13:01:28.150Z,101522.75
2022-11-29T13:03:54.650Z,101518.53
2022-11-29T13:06:21.115Z,101526.84
2022-11-29T13:11:41.633Z,101531.59
2022-11-29T13:14:41.013Z,101528.47
2022-11-29T13:16:55.719Z,101533.22
2022-11-29T13:19:23.139Z,101531.16
2022-11-29T13:21:50.533Z,101540.25
2022-11-29T13:27:00.948Z,101553.47
2022-11-29T13:29:27.405Z,101544.00
2022-11-29T13:31:53.877Z,101546.69
2022-11-29T13:34:21.287Z,101550.53
2022-11-29T13:36:47.783Z,101555.44
2022-11-29T13:41:58.107Z,101559.28
2022-11-29T13:44:25.479Z,101561.06
2022-11-29T13:46:52.956Z,101559.00
2022-11-29T13:49:20.332Z,101555.06
2022-11-29T13:51:47.770Z,101561.31
2022-11-29T13:54:14.217Z,101562.38
2022-11-29T13:56:40.739Z,101562.75
2022-11-29T13:59:07.172Z,101560.56
2022-11-29T14:01:34.803Z,101554.09
2022-11-29T14:04:02.201Z,101562.28
2022-11-29T14:06:28.632Z,101556.84
2022-11-29T14:09:17.661Z,101563.19
2022-11-29T14:11:42.443Z,101564.19
2022-11-29T14:14:08.889Z,101557.38
2022-11-29T14:16:35.316Z,101556.84
2022-11-29T14:19:02.688Z,101558.56
2022-11-29T14:21:29.173Z,101550.44
2022-11-29T14:23:56.535Z,101556.78
2022-11-29T14:26:28.239Z,101555.88
2022-11-29T14:28:55.121Z,101557.38
2022-11-29T14:31:21.602Z,101556.22
2022-11-29T14:33:48.120Z,101558.22
2022-11-29T14:36:14.555Z,101551.34
2022-11-29T14:38:41.916Z,101543.91
2022-11-29T14:41:08.342Z,101548.44
2022-11-29T14:43:34.873Z,101554.75
2022-11-29T14:46:02.207Z,101550.19
2022-11-29T14:48:29.795Z,101554.66
2022-11-29T14:50:57.148Z,101553.25
2022-11-29T14:53:23.570Z,101554.84
2022-11-29T14:55:50.856Z,101555.41
2022-11-29T14:58:18.105Z,101553.50
2022-11-29T15:00:45.407Z,101548.75
2022-11-29T15:03:12.723Z,101552.31
2022-11-29T15:05:42.691Z,101557.13
2022-11-29T15:08:10.010Z,101553.25
2022-11-29T15:10:36.417Z,101555.31
2022-11-29T15:15:56.407Z,101558.09
2022-11-29T15:18:22.859Z,101561.72
2022-11-29T15:20:50.089Z,101559.34
2022-11-29T15:23:16.429Z,101562.88
2022-11-29T15:25:42.757Z,101568.94
2022-11-29T15:31:04.131Z,101574.50
2022-11-29T15:33:30.524Z,101578.91
2022-11-29T15:35:56.868Z,101570.16
2022-11-29T15:38:23.296Z,101578.63
2022-11-29T15:40:50.541Z,101576.22
2022-11-29T15:46:01.121Z,101574.13
2022-11-29T15:48:27.579Z,101583.25
2022-11-29T15:50:56.757Z,101582.06
2022-11-29T15:53:23.176Z,101589.25
2022-11-29T15:55:52.359Z,101595.97
2022-11-29T16:01:02.663Z,101590.34
2022-11-29T16:03:29.123Z,101588.03
2022-11-29T16:05:55.605Z,101591.22
2022-11-29T16:08:25.508Z,101587.63
2022-11-29T16:10:53.811Z,101591.22
2022-11-29T16:16:04.406Z,101594.38
2022-11-29T16:18:30.837Z,101591.22
2022-11-29T16:20:59.111Z,101587.63
2022-11-29T16:23:27.440Z,101591.22
2022-11-29T16:25:55.720Z,101590.47
2022-11-29T16:31:20.879Z,101594.38
2022-11-29T16:33:47.501Z,101606.34
2022-11-29T16:36:14.011Z,101605.91
2022-11-29T16:38:41.260Z,101600.00
2022-11-29T16:41:11.204Z,101602.72
2022-11-29T16:46:25.376Z,101609.84
2022-11-29T16:48:51.789Z,101606.66
2022-11-29T16:51:18.211Z,101609.78
2022-11-29T16:53:44.669Z,101614.19
2022-11-29T16:56:12.004Z,101606.66
2022-11-29T17:01:27.440Z,101618.13
2022-11-29T17:03:55.747Z,101610.63
2022-11-29T17:06:24.022Z,101610.25
2022-11-29T17:08:52.394Z,101611.41
2022-11-29T17:11:18.851Z,101611.78
2022-11-29T17:16:44.966Z,101618.13
2022-11-29T17:19:13.585Z,101618.13
2022-11-29T17:21:40.821Z,101618.13
2022-11-29T17:24:07.275Z,101622.88
2022-11-29T17:26:33.740Z,101619.75
2022-11-29T17:31:46.407Z,101628.06
2022-11-29T17:34:13.770Z,101622.53
2022-11-29T17:36:42.288Z,101626.47
2022-11-29T17:39:10.584Z,101628.44
2022-11-29T17:41:37.825Z,101638.41
2022-11-29T17:47:01.436Z,101643.13
2022-11-29T17:49:29.739Z,101634.44
2022-11-29T17:51:56.146Z,101631.66
2022-11-29T17:54:22.659Z,101630.50
2022-11-29T17:56:50.975Z,101638.81
2022-11-29T18:02:15.066Z,101639.63
2022-11-29T18:04:43.396Z,101633.28
2022-11-29T18:07:09.874Z,101645.19
2022-11-29T18:09:39.054Z,101644.44
2022-11-29T18:12:05.526Z,101645.97
2022-11-29T18:17:27.908Z,101633.28
2022-11-29T18:19:54.413Z,101640.81
2022-11-29T18:22:20.925Z,101640.41
2022-11-29T18:24:48.257Z,101634.06
2022-11-29T18:27:14.738Z,101640.81
2022-11-29T18:32:28.990Z,101643.97
2022-11-29T18:34:55.466Z,101645.59
2022-11-29T18:37:46.116Z,101650.44
2022-11-29T18:40:08.584Z,101644.44
2022-11-29T18:42:36.888Z,101646.78
2022-11-29T18:47:49.837Z,101646.13
2022-11-29T18:50:18.113Z,101654.06
2022-11-29T18:52:46.433Z,101646.91
2022-11-29T18:55:14.730Z,101652.84
2022-11-29T18:57:43.069Z,101648.16
2022-11-29T19:02:55.441Z,101654.88
2022-11-29T19:05:24.618Z,101648.97
2022-11-29T19:07:51.182Z,101647.78
2022-11-29T19:10:19.510Z,101657.31
2022-11-29T19:12:47.858Z,101664.50
2022-11-29T19:18:10.343Z,101662.97
2022-11-29T19:20:37.820Z,101670.13
2022-11-29T19:23:05.208Z,101664.47
2022-11-29T19:25:31.650Z,101670.16
2022-11-29T19:27:58.107Z,101671.75
2022-11-29T19:33:08.978Z,101676.63
2022-11-29T19:35:36.425Z,101670.88
2022-11-29T19:38:02.879Z,101674.47
2022-11-29T19:40:30.228Z,101676.88
2022-11-29T19:42:56.652Z,101679.59
2022-11-29T19:48:18.024Z,101677.06
2022-11-29T19:50:45.314Z,101683.44
2022-11-29T19:53:12.604Z,101683.06
2022-11-29T19:55:44.110Z,101683.13
2022-11-29T19:58:12.567Z,101687.53
2022-11-29T20:03:25.479Z,101680.28
2022-11-29T20:05:52.786Z,101684.69
2022-11-29T20:08:21.425Z,101689.81
2022-11-29T20:10:48.200Z,101695.44
2022-11-29T20:13:15.543Z,101696.28
2022-11-29T20:18:25.953Z,101688.44
2022-11-29T20:20:55.132Z,101698.34
2022-11-29T20:23:22.378Z,101699.06
2022-11-29T20:25:48.888Z,101694.69
2022-11-29T20:28:18.101Z,101695.13
2022-11-29T20:33:38.544Z,101697.84
2022-11-29T20:36:04.964Z,101692.66
2022-11-29T20:38:31.384Z,101693.44
2022-11-29T20:41:02.464Z,101698.66
2022-11-29T20:43:30.051Z,101699.06
2022-11-29T20:48:51.241Z,101693.88
2022-11-29T20:51:18.513Z,101684.38
2022-11-29T20:53:44.954Z,101701.84
2022-11-29T20:56:12.180Z,101692.28
2022-11-29T20:58:38.557Z,101703.84
2022-11-29T21:01:04.945Z,101702.28
2022-11-29T21:03:31.419Z,101709.47
2022-11-29T21:05:57.781Z,101698.69
2022-11-29T21:08:24.179Z,101702.84
2022-11-29T21:10:50.512Z,101698.88
2022-11-29T21:13:17.742Z,101702.16
2022-11-29T21:15:46.078Z,101704.53
2022-11-29T21:18:12.630Z,101704.94
2022-11-29T21:20:40.973Z,101716.50
2022-11-29T21:23:09.248Z,101713.84
2022-11-29T21:25:35.714Z,101723.56
2022-11-29T21:28:03.010Z,101721.13
2022-11-29T21:30:29.411Z,101723.91
2022-11-29T21:32:55.899Z,101725.78
2022-11-29T21:35:22.369Z,101724.91
2022-11-29T21:37:48.839Z,101732.22
2022-11-29T21:40:15.312Z,101724.50
2022-11-29T21:42:41.753Z,101723.53
2022-11-29T21:45:14.809Z,101725.88
2022-11-29T21:47:43.155Z,101734.22
2022-11-29T21:50:11.479Z,101723.75
2022-11-29T21:52:38.842Z,101734.03
2022-11-29T21:55:05.315Z,101729.78
2022-11-29T21:57:32.705Z,101726.19
2022-11-29T22:00:00.095Z,101731.25
2022-11-29T22:02:26.646Z,101719.63
2022-11-29T22:04:53.134Z,101737.44
2022-11-29T22:07:20.637Z,101734.97
2022-11-29T22:09:47.110Z,101742.94
2022-11-29T22:12:33.013Z,101737.16
2022-11-29T22:15:00.968Z,101743.16
2022-11-29T22:17:28.246Z,101736.88
2022-11-29T22:19:55.636Z,101750.34
2022-11-29T22:22:22.068Z,101751.84
2022-11-29T22:24:49.629Z,101740.81
2022-11-29T22:27:16.989Z,101748.72
2022-11-29T22:29:43.486Z,101750.63
2022-11-29T22:32:10.009Z,101755.75
2022-11-29T22:37:23.379Z,101750.53
2022-11-29T22:39:49.804Z,101745.44
2022-11-29T22:42:18.186Z,101754.41
2022-11-29T22:44:44.940Z,101750.47
2022-11-29T22:47:11.657Z,101753.25
2022-11-29T22:52:34.092Z,101742.22
2022-11-29T22:55:04.800Z,101747.69
2022-11-29T22:57:33.417Z,101737.75
2022-11-29T22:59:59.921Z,101738.19
2022-11-29T23:02:26.389Z,101741.31
2022-11-29T23:07:39.711Z,101735.75
2022-11-29T23:10:08.031Z,101734.09
2022-11-29T23:12:34.498Z,101736.13
2022-11-29T23:15:00.957Z,101733.66
2022-11-29T23:17:27.350Z,101729.72
2022-11-29T23:22:38.503Z,101721.81
2022-11-29T23:25:06.745Z,101726.56
2022-11-29T23:27:33.142Z,101727.38
2022-11-29T23:29:59.592Z,101725.84
2022-11-29T23:32:26.004Z,101728.47
2022-11-29T23:37:46.512Z,101718.88
2022-11-29T23:40:14.803Z,101722.91
2022-11-29T23:42:45.001Z,101716.47
2022-11-29T23:45:13.513Z,101707.78
2022-11-29T23:47:39.934Z,101713.84
2022-11-29T23:52:53.128Z,101713.97
2022-11-29T23:55:20.380Z,101703.66
2022-11-29T23:57:46.771Z,101703.28
